sensor_id;sensor_type;location;lat;lon;timestamp;P1;durP1;ratioP1;P2;durP2;ratioP2
48363;SDS011;34170;54.364;18.582;2023-07-20T00:02:13;5.72;;;2.85;;
48363;SDS011;34170;54.364;18.582;2023-07-20T00:04:41;4.35;;;2.45;;
48363;SDS011;34170;54.364;18.582;2023-07-20T00:07:08;4.28;;;2.50;;
48363;SDS011;34170;54.364;18.582;2023-07-20T00:09:36;5.05;;;2.50;;
48363;SDS011;34170;54.364;18.582;2023-07-20T00:12:03;5.93;;;2.85;;
48363;SDS011;34170;54.364;18.582;2023-07-20T00:14:31;7.05;;;2.45;;
48363;SDS011;34170;54.364;18.582;2023-07-20T00:16:59;4.57;;;2.83;;
48363;SDS011;34170;54.364;18.582;2023-07-20T00:19:27;4.72;;;2.40;;
48363;SDS011;34170;54.364;18.582;2023-07-20T00:21:55;3.63;;;2.30;;
48363;SDS011;34170;54.364;18.582;2023-07-20T00:24:22;4.28;;;2.60;;
48363;SDS011;34170;54.364;18.582;2023-07-20T00:26:50;3.97;;;2.30;;
48363;SDS011;34170;54.364;18.582;2023-07-20T00:29:18;3.85;;;1.98;;
48363;SDS011;34170;54.364;18.582;2023-07-20T00:31:46;4.85;;;2.20;;
48363;SDS011;34170;54.364;18.582;2023-07-20T00:34:17;5.93;;;2.00;;
48363;SDS011;34170;54.364;18.582;2023-07-20T00:36:45;4.05;;;2.28;;
48363;SDS011;34170;54.364;18.582;2023-07-20T00:39:12;3.90;;;2.58;;
48363;SDS011;34170;54.364;18.582;2023-07-20T00:41:40;5.20;;;2.15;;
48363;SDS011;34170;54.364;18.582;2023-07-20T00:44:07;2.28;;;1.90;;
48363;SDS011;34170;54.364;18.582;2023-07-20T00:46:35;5.18;;;2.63;;
48363;SDS011;34170;54.364;18.582;2023-07-20T00:49:02;4.78;;;2.22;;
48363;SDS011;34170;54.364;18.582;2023-07-20T00:51:30;4.20;;;1.98;;
48363;SDS011;34170;54.364;18.582;2023-07-20T00:53:58;4.55;;;2.10;;
48363;SDS011;34170;54.364;18.582;2023-07-20T00:56:26;3.78;;;2.50;;
48363;SDS011;34170;54.364;18.582;2023-07-20T00:58:53;5.32;;;2.53;;
48363;SDS011;34170;54.364;18.582;2023-07-20T01:01:21;7.00;;;2.42;;
48363;SDS011;34170;54.364;18.582;2023-07-20T01:03:49;4.13;;;2.20;;
48363;SDS011;34170;54.364;18.582;2023-07-20T01:09:19;3.47;;;2.20;;
48363;SDS011;34170;54.364;18.582;2023-07-20T01:12:07;5.60;;;2.42;;
48363;SDS011;34170;54.364;18.582;2023-07-20T01:14:39;8.00;;;2.60;;
48363;SDS011;34170;54.364;18.582;2023-07-20T01:17:07;5.57;;;2.10;;
48363;SDS011;34170;54.364;18.582;2023-07-20T01:19:34;3.88;;;2.13;;
48363;SDS011;34170;54.364;18.582;2023-07-20T01:24:44;2.00;;;1.65;;
48363;SDS011;34170;54.364;18.582;2023-07-20T01:32:49;6.20;;;2.45;;
48363;SDS011;34170;54.364;18.582;2023-07-20T01:35:17;5.35;;;2.30;;
48363;SDS011;34170;54.364;18.582;2023-07-20T01:37:47;3.00;;;1.75;;
48363;SDS011;34170;54.364;18.582;2023-07-20T01:40:16;3.08;;;1.55;;
48363;SDS011;34170;54.364;18.582;2023-07-20T01:42:45;4.88;;;1.90;;
48363;SDS011;34170;54.364;18.582;2023-07-20T01:45:13;4.38;;;2.05;;
48363;SDS011;34170;54.364;18.582;2023-07-20T01:47:41;4.32;;;2.05;;
48363;SDS011;34170;54.364;18.582;2023-07-20T01:50:08;3.80;;;2.20;;
48363;SDS011;34170;54.364;18.582;2023-07-20T01:52:36;4.53;;;1.80;;
48363;SDS011;34170;54.364;18.582;2023-07-20T01:55:03;4.75;;;1.85;;
48363;SDS011;34170;54.364;18.582;2023-07-20T01:57:31;3.58;;;1.85;;
48363;SDS011;34170;54.364;18.582;2023-07-20T01:59:59;2.92;;;1.80;;
48363;SDS011;34170;54.364;18.582;2023-07-20T02:02:27;4.10;;;1.75;;
48363;SDS011;34170;54.364;18.582;2023-07-20T02:04:55;5.10;;;2.17;;
48363;SDS011;34170;54.364;18.582;2023-07-20T02:07:23;2.30;;;1.70;;
48363;SDS011;34170;54.364;18.582;2023-07-20T02:09:50;3.10;;;1.55;;
48363;SDS011;34170;54.364;18.582;2023-07-20T02:12:18;4.15;;;1.90;;
48363;SDS011;34170;54.364;18.582;2023-07-20T02:14:46;5.50;;;1.67;;
48363;SDS011;34170;54.364;18.582;2023-07-20T02:17:14;6.13;;;1.90;;
48363;SDS011;34170;54.364;18.582;2023-07-20T02:19:41;3.95;;;1.90;;
48363;SDS011;34170;54.364;18.582;2023-07-20T02:22:09;3.35;;;1.83;;
48363;SDS011;34170;54.364;18.582;2023-07-20T02:24:37;2.92;;;1.27;;
48363;SDS011;34170;54.364;18.582;2023-07-20T02:27:04;3.40;;;1.50;;
48363;SDS011;34170;54.364;18.582;2023-07-20T02:29:32;2.83;;;1.52;;
48363;SDS011;34170;54.364;18.582;2023-07-20T02:31:59;3.08;;;1.90;;
48363;SDS011;34170;54.364;18.582;2023-07-20T02:34:27;3.90;;;1.70;;
48363;SDS011;34170;54.364;18.582;2023-07-20T02:36:54;3.58;;;1.55;;
48363;SDS011;34170;54.364;18.582;2023-07-20T02:39:27;3.70;;;1.85;;
48363;SDS011;34170;54.364;18.582;2023-07-20T02:41:55;4.18;;;1.90;;
48363;SDS011;34170;54.364;18.582;2023-07-20T02:44:22;2.80;;;1.90;;
48363;SDS011;34170;54.364;18.582;2023-07-20T02:46:50;4.32;;;1.83;;
48363;SDS011;34170;54.364;18.582;2023-07-20T02:49:17;3.40;;;1.85;;
48363;SDS011;34170;54.364;18.582;2023-07-20T02:51:45;5.53;;;2.10;;
48363;SDS011;34170;54.364;18.582;2023-07-20T02:54:13;3.30;;;1.83;;
48363;SDS011;34170;54.364;18.582;2023-07-20T02:56:40;3.20;;;2.10;;
48363;SDS011;34170;54.364;18.582;2023-07-20T02:59:08;3.97;;;1.80;;
48363;SDS011;34170;54.364;18.582;2023-07-20T03:01:36;4.30;;;1.67;;
48363;SDS011;34170;54.364;18.582;2023-07-20T03:04:03;3.75;;;1.77;;
48363;SDS011;34170;54.364;18.582;2023-07-20T03:06:31;2.05;;;1.40;;
48363;SDS011;34170;54.364;18.582;2023-07-20T03:11:31;3.92;;;2.10;;
48363;SDS011;34170;54.364;18.582;2023-07-20T03:14:00;5.75;;;2.25;;
48363;SDS011;34170;54.364;18.582;2023-07-20T03:16:28;5.07;;;1.85;;
48363;SDS011;34170;54.364;18.582;2023-07-20T03:19:00;3.10;;;1.55;;
48363;SDS011;34170;54.364;18.582;2023-07-20T03:21:29;4.10;;;1.45;;
48363;SDS011;34170;54.364;18.582;2023-07-20T03:23:58;3.35;;;1.50;;
48363;SDS011;34170;54.364;18.582;2023-07-20T03:26:26;4.05;;;1.90;;
48363;SDS011;34170;54.364;18.582;2023-07-20T03:28:54;3.80;;;1.50;;
48363;SDS011;34170;54.364;18.582;2023-07-20T03:31:21;2.92;;;1.30;;
48363;SDS011;34170;54.364;18.582;2023-07-20T03:33:49;5.70;;;1.45;;
48363;SDS011;34170;54.364;18.582;2023-07-20T03:36:17;2.53;;;1.42;;
48363;SDS011;34170;54.364;18.582;2023-07-20T03:38:45;3.20;;;1.00;;
48363;SDS011;34170;54.364;18.582;2023-07-20T03:41:12;2.88;;;1.10;;
48363;SDS011;34170;54.364;18.582;2023-07-20T03:43:41;2.83;;;1.40;;
48363;SDS011;34170;54.364;18.582;2023-07-20T03:46:09;4.45;;;1.38;;
48363;SDS011;34170;54.364;18.582;2023-07-20T03:48:38;2.85;;;1.45;;
48363;SDS011;34170;54.364;18.582;2023-07-20T03:51:05;2.15;;;0.98;;
48363;SDS011;34170;54.364;18.582;2023-07-20T03:53:33;2.88;;;1.08;;
48363;SDS011;34170;54.364;18.582;2023-07-20T03:56:01;2.35;;;1.33;;
48363;SDS011;34170;54.364;18.582;2023-07-20T03:58:28;2.95;;;0.95;;
48363;SDS011;34170;54.364;18.582;2023-07-20T04:00:57;2.42;;;0.85;;
48363;SDS011;34170;54.364;18.582;2023-07-20T04:03:24;3.08;;;1.30;;
48363;SDS011;34170;54.364;18.582;2023-07-20T04:05:54;3.58;;;0.98;;
48363;SDS011;34170;54.364;18.582;2023-07-20T04:08:24;2.72;;;0.80;;
48363;SDS011;34170;54.364;18.582;2023-07-20T04:10:52;1.73;;;0.98;;
48363;SDS011;34170;54.364;18.582;2023-07-20T04:13:20;1.98;;;0.85;;
48363;SDS011;34170;54.364;18.582;2023-07-20T04:15:47;2.70;;;0.65;;
48363;SDS011;34170;54.364;18.582;2023-07-20T04:18:14;3.17;;;1.00;;
48363;SDS011;34170;54.364;18.582;2023-07-20T04:20:42;2.13;;;0.80;;
48363;SDS011;34170;54.364;18.582;2023-07-20T04:23:09;3.03;;;1.02;;
48363;SDS011;34170;54.364;18.582;2023-07-20T04:25:40;3.72;;;1.10;;
48363;SDS011;34170;54.364;18.582;2023-07-20T04:28:11;3.38;;;0.88;;
48363;SDS011;34170;54.364;18.582;2023-07-20T04:30:43;2.00;;;0.98;;
48363;SDS011;34170;54.364;18.582;2023-07-20T04:33:10;3.22;;;1.05;;
48363;SDS011;34170;54.364;18.582;2023-07-20T04:38:24;2.67;;;0.90;;
48363;SDS011;34170;54.364;18.582;2023-07-20T04:41:01;3.33;;;1.00;;
48363;SDS011;34170;54.364;18.582;2023-07-20T04:43:32;3.45;;;1.20;;
48363;SDS011;34170;54.364;18.582;2023-07-20T04:46:00;3.05;;;0.80;;
48363;SDS011;34170;54.364;18.582;2023-07-20T04:48:30;2.58;;;0.90;;
48363;SDS011;34170;54.364;18.582;2023-07-20T04:50:58;3.08;;;0.80;;
48363;SDS011;34170;54.364;18.582;2023-07-20T04:53:25;2.92;;;1.33;;
48363;SDS011;34170;54.364;18.582;2023-07-20T04:55:53;2.85;;;1.15;;
48363;SDS011;34170;54.364;18.582;2023-07-20T04:58:23;3.17;;;1.42;;
48363;SDS011;34170;54.364;18.582;2023-07-20T05:00:53;3.05;;;1.40;;
48363;SDS011;34170;54.364;18.582;2023-07-20T05:03:21;2.65;;;1.20;;
48363;SDS011;34170;54.364;18.582;2023-07-20T05:05:49;3.33;;;1.50;;
48363;SDS011;34170;54.364;18.582;2023-07-20T05:08:17;6.07;;;1.75;;
48363;SDS011;34170;54.364;18.582;2023-07-20T05:10:46;5.32;;;1.30;;
48363;SDS011;34170;54.364;18.582;2023-07-20T05:13:14;2.13;;;1.10;;
48363;SDS011;34170;54.364;18.582;2023-07-20T05:15:42;3.60;;;1.15;;
48363;SDS011;34170;54.364;18.582;2023-07-20T05:18:13;3.77;;;1.20;;
48363;SDS011;34170;54.364;18.582;2023-07-20T05:20:40;4.38;;;1.25;;
48363;SDS011;34170;54.364;18.582;2023-07-20T05:23:08;3.85;;;1.00;;
48363;SDS011;34170;54.364;18.582;2023-07-20T05:25:36;6.38;;;1.65;;
48363;SDS011;34170;54.364;18.582;2023-07-20T05:28:04;2.85;;;1.50;;
48363;SDS011;34170;54.364;18.582;2023-07-20T05:30:31;2.42;;;1.13;;
48363;SDS011;34170;54.364;18.582;2023-07-20T05:32:59;3.03;;;1.23;;
48363;SDS011;34170;54.364;18.582;2023-07-20T05:35:26;2.58;;;1.30;;
48363;SDS011;34170;54.364;18.582;2023-07-20T05:37:54;5.85;;;1.48;;
48363;SDS011;34170;54.364;18.582;2023-07-20T05:40:22;4.82;;;1.42;;
48363;SDS011;34170;54.364;18.582;2023-07-20T05:42:49;2.30;;;1.30;;
48363;SDS011;34170;54.364;18.582;2023-07-20T05:45:19;2.60;;;1.33;;
48363;SDS011;34170;54.364;18.582;2023-07-20T05:47:47;4.72;;;1.20;;
48363;SDS011;34170;54.364;18.582;2023-07-20T05:50:15;2.67;;;1.10;;
48363;SDS011;34170;54.364;18.582;2023-07-20T05:52:42;3.10;;;1.20;;
48363;SDS011;34170;54.364;18.582;2023-07-20T05:55:10;4.22;;;1.45;;
48363;SDS011;34170;54.364;18.582;2023-07-20T05:57:37;4.63;;;1.10;;
48363;SDS011;34170;54.364;18.582;2023-07-20T06:00:09;3.97;;;1.13;;
48363;SDS011;34170;54.364;18.582;2023-07-20T06:02:41;2.72;;;1.10;;
48363;SDS011;34170;54.364;18.582;2023-07-20T06:05:10;2.53;;;0.98;;
48363;SDS011;34170;54.364;18.582;2023-07-20T06:07:37;4.68;;;1.05;;
48363;SDS011;34170;54.364;18.582;2023-07-20T06:10:05;2.25;;;0.90;;
48363;SDS011;34170;54.364;18.582;2023-07-20T06:12:33;5.25;;;0.93;;
48363;SDS011;34170;54.364;18.582;2023-07-20T06:15:02;5.25;;;1.30;;
48363;SDS011;34170;54.364;18.582;2023-07-20T06:17:30;2.13;;;0.93;;
48363;SDS011;34170;54.364;18.582;2023-07-20T06:19:58;5.43;;;1.10;;
48363;SDS011;34170;54.364;18.582;2023-07-20T06:22:26;2.60;;;1.40;;
48363;SDS011;34170;54.364;18.582;2023-07-20T06:24:53;2.15;;;1.35;;
48363;SDS011;34170;54.364;18.582;2023-07-20T06:27:21;3.90;;;1.20;;
48363;SDS011;34170;54.364;18.582;2023-07-20T06:29:48;2.95;;;1.05;;
48363;SDS011;34170;54.364;18.582;2023-07-20T06:32:16;2.75;;;1.05;;
48363;SDS011;34170;54.364;18.582;2023-07-20T06:34:43;2.25;;;1.20;;
48363;SDS011;34170;54.364;18.582;2023-07-20T06:37:10;5.00;;;1.00;;
48363;SDS011;34170;54.364;18.582;2023-07-20T06:39:38;4.07;;;1.00;;
48363;SDS011;34170;54.364;18.582;2023-07-20T06:42:08;3.35;;;1.60;;
48363;SDS011;34170;54.364;18.582;2023-07-20T06:44:36;3.35;;;1.08;;
48363;SDS011;34170;54.364;18.582;2023-07-20T06:47:03;3.20;;;1.40;;
48363;SDS011;34170;54.364;18.582;2023-07-20T06:49:31;2.20;;;0.85;;
48363;SDS011;34170;54.364;18.582;2023-07-20T06:51:59;2.03;;;1.02;;
48363;SDS011;34170;54.364;18.582;2023-07-20T06:54:26;1.83;;;0.82;;
48363;SDS011;34170;54.364;18.582;2023-07-20T06:56:54;4.75;;;0.50;;
48363;SDS011;34170;54.364;18.582;2023-07-20T06:59:25;5.10;;;0.85;;
48363;SDS011;34170;54.364;18.582;2023-07-20T07:01:52;3.13;;;0.70;;
48363;SDS011;34170;54.364;18.582;2023-07-20T07:04:20;3.00;;;0.68;;
48363;SDS011;34170;54.364;18.582;2023-07-20T07:06:47;1.95;;;0.63;;
48363;SDS011;34170;54.364;18.582;2023-07-20T07:09:15;1.13;;;0.40;;
48363;SDS011;34170;54.364;18.582;2023-07-20T07:11:42;1.23;;;0.50;;
48363;SDS011;34170;54.364;18.582;2023-07-20T07:14:11;3.17;;;1.00;;
48363;SDS011;34170;54.364;18.582;2023-07-20T07:16:39;1.48;;;0.50;;
48363;SDS011;34170;54.364;18.582;2023-07-20T07:19:07;2.10;;;0.40;;
48363;SDS011;34170;54.364;18.582;2023-07-20T07:21:35;1.67;;;0.60;;
48363;SDS011;34170;54.364;18.582;2023-07-20T07:24:03;1.65;;;0.80;;
48363;SDS011;34170;54.364;18.582;2023-07-20T07:26:30;1.40;;;0.57;;
48363;SDS011;34170;54.364;18.582;2023-07-20T07:28:58;3.55;;;0.60;;
48363;SDS011;34170;54.364;18.582;2023-07-20T07:31:25;1.20;;;0.60;;
48363;SDS011;34170;54.364;18.582;2023-07-20T07:33:53;3.10;;;0.80;;
48363;SDS011;34170;54.364;18.582;2023-07-20T07:36:21;1.90;;;0.60;;
48363;SDS011;34170;54.364;18.582;2023-07-20T07:38:49;2.15;;;0.63;;
48363;SDS011;34170;54.364;18.582;2023-07-20T07:41:36;6.32;;;0.93;;
48363;SDS011;34170;54.364;18.582;2023-07-20T07:44:04;2.88;;;0.80;;
48363;SDS011;34170;54.364;18.582;2023-07-20T07:46:32;0.95;;;0.75;;
48363;SDS011;34170;54.364;18.582;2023-07-20T07:49:00;2.17;;;1.00;;
48363;SDS011;34170;54.364;18.582;2023-07-20T07:51:28;2.15;;;0.75;;
48363;SDS011;34170;54.364;18.582;2023-07-20T07:53:56;1.67;;;0.60;;
48363;SDS011;34170;54.364;18.582;2023-07-20T07:56:23;3.00;;;1.02;;
48363;SDS011;34170;54.364;18.582;2023-07-20T07:58:52;3.67;;;1.08;;
48363;SDS011;34170;54.364;18.582;2023-07-20T08:01:19;2.25;;;0.90;;
48363;SDS011;34170;54.364;18.582;2023-07-20T08:03:48;2.33;;;0.85;;
48363;SDS011;34170;54.364;18.582;2023-07-20T08:06:16;2.90;;;0.70;;
48363;SDS011;34170;54.364;18.582;2023-07-20T08:08:43;1.45;;;0.70;;
48363;SDS011;34170;54.364;18.582;2023-07-20T08:11:11;1.40;;;0.30;;
48363;SDS011;34170;54.364;18.582;2023-07-20T08:13:41;1.38;;;0.30;;
48363;SDS011;34170;54.364;18.582;2023-07-20T08:16:09;3.33;;;0.32;;
48363;SDS011;34170;54.364;18.582;2023-07-20T08:18:38;2.55;;;0.68;;
48363;SDS011;34170;54.364;18.582;2023-07-20T08:21:06;1.08;;;0.30;;
48363;SDS011;34170;54.364;18.582;2023-07-20T08:23:33;1.42;;;0.45;;
48363;SDS011;34170;54.364;18.582;2023-07-20T08:26:01;1.50;;;0.30;;
48363;SDS011;34170;54.364;18.582;2023-07-20T08:28:28;1.63;;;0.40;;
48363;SDS011;34170;54.364;18.582;2023-07-20T08:30:56;1.38;;;0.60;;
48363;SDS011;34170;54.364;18.582;2023-07-20T08:33:24;1.48;;;0.40;;
48363;SDS011;34170;54.364;18.582;2023-07-20T08:35:51;2.00;;;0.25;;
48363;SDS011;34170;54.364;18.582;2023-07-20T08:38:19;0.60;;;0.20;;
48363;SDS011;34170;54.364;18.582;2023-07-20T08:40:46;2.22;;;0.28;;
48363;SDS011;34170;54.364;18.582;2023-07-20T08:43:15;0.85;;;0.30;;
48363;SDS011;34170;54.364;18.582;2023-07-20T08:45:44;1.30;;;0.40;;
48363;SDS011;34170;54.364;18.582;2023-07-20T08:48:13;1.42;;;0.30;;
48363;SDS011;34170;54.364;18.582;2023-07-20T08:50:40;0.85;;;0.20;;
48363;SDS011;34170;54.364;18.582;2023-07-20T08:53:10;0.70;;;0.30;;
48363;SDS011;34170;54.364;18.582;2023-07-20T08:55:37;3.67;;;1.00;;
48363;SDS011;34170;54.364;18.582;2023-07-20T08:58:07;2.75;;;0.88;;
48363;SDS011;34170;54.364;18.582;2023-07-20T09:00:38;1.38;;;0.35;;
48363;SDS011;34170;54.364;18.582;2023-07-20T09:03:09;0.60;;;0.10;;
48363;SDS011;34170;54.364;18.582;2023-07-20T09:05:38;0.65;;;0.20;;
48363;SDS011;34170;54.364;18.582;2023-07-20T09:08:07;0.70;;;0.20;;
48363;SDS011;34170;54.364;18.582;2023-07-20T09:10:34;1.58;;;0.50;;
48363;SDS011;34170;54.364;18.582;2023-07-20T09:13:02;0.95;;;0.30;;
48363;SDS011;34170;54.364;18.582;2023-07-20T09:15:29;1.23;;;0.20;;
48363;SDS011;34170;54.364;18.582;2023-07-20T09:17:58;8.00;;;1.13;;
48363;SDS011;34170;54.364;18.582;2023-07-20T09:20:30;2.78;;;0.30;;
48363;SDS011;34170;54.364;18.582;2023-07-20T09:22:59;4.10;;;0.43;;
48363;SDS011;34170;54.364;18.582;2023-07-20T09:25:31;1.38;;;0.40;;
48363;SDS011;34170;54.364;18.582;2023-07-20T09:28:01;1.75;;;0.43;;
48363;SDS011;34170;54.364;18.582;2023-07-20T09:30:31;4.45;;;0.60;;
48363;SDS011;34170;54.364;18.582;2023-07-20T09:33:00;1.33;;;0.40;;
48363;SDS011;34170;54.364;18.582;2023-07-20T09:35:28;1.00;;;0.17;;
48363;SDS011;34170;54.364;18.582;2023-07-20T09:38:09;0.32;;;0.10;;
48363;SDS011;34170;54.364;18.582;2023-07-20T09:40:39;0.77;;;0.32;;
48363;SDS011;34170;54.364;18.582;2023-07-20T09:43:10;0.75;;;0.10;;
48363;SDS011;34170;54.364;18.582;2023-07-20T09:45:41;0.47;;;0.10;;
48363;SDS011;34170;54.364;18.582;2023-07-20T09:48:12;0.60;;;0.20;;
48363;SDS011;34170;54.364;18.582;2023-07-20T09:50:43;1.15;;;0.15;;
48363;SDS011;34170;54.364;18.582;2023-07-20T09:53:18;0.40;;;0.10;;
48363;SDS011;34170;54.364;18.582;2023-07-20T09:55:47;0.20;;;0.10;;
48363;SDS011;34170;54.364;18.582;2023-07-20T09:58:16;1.00;;;0.20;;
48363;SDS011;34170;54.364;18.582;2023-07-20T10:00:44;0.88;;;0.10;;
48363;SDS011;34170;54.364;18.582;2023-07-20T10:03:26;1.73;;;0.22;;
48363;SDS011;34170;54.364;18.582;2023-07-20T10:06:05;0.32;;;0.10;;
48363;SDS011;34170;54.364;18.582;2023-07-20T10:08:38;1.20;;;0.10;;
48363;SDS011;34170;54.364;18.582;2023-07-20T10:11:10;0.60;;;0.17;;
48363;SDS011;34170;54.364;18.582;2023-07-20T10:13:41;0.30;;;0.17;;
48363;SDS011;34170;54.364;18.582;2023-07-20T10:16:15;0.73;;;0.10;;
48363;SDS011;34170;54.364;18.582;2023-07-20T10:21:42;2.50;;;0.20;;
48363;SDS011;34170;54.364;18.582;2023-07-20T10:24:22;0.90;;;0.30;;
48363;SDS011;34170;54.364;18.582;2023-07-20T10:26:51;2.08;;;0.25;;
48363;SDS011;34170;54.364;18.582;2023-07-20T10:29:19;0.75;;;0.20;;
48363;SDS011;34170;54.364;18.582;2023-07-20T10:31:48;0.65;;;0.20;;
48363;SDS011;34170;54.364;18.582;2023-07-20T10:34:17;1.33;;;0.13;;
48363;SDS011;34170;54.364;18.582;2023-07-20T10:36:45;1.40;;;0.30;;
48363;SDS011;34170;54.364;18.582;2023-07-20T10:42:14;0.65;;;0.20;;
48363;SDS011;34170;54.364;18.582;2023-07-20T10:44:41;0.45;;;0.20;;
48363;SDS011;34170;54.364;18.582;2023-07-20T10:47:09;0.82;;;0.10;;
48363;SDS011;34170;54.364;18.582;2023-07-20T10:49:57;0.80;;;0.30;;
48363;SDS011;34170;54.364;18.582;2023-07-20T10:52:25;1.13;;;0.25;;
48363;SDS011;34170;54.364;18.582;2023-07-20T10:54:53;0.40;;;0.10;;
48363;SDS011;34170;54.364;18.582;2023-07-20T10:57:21;0.93;;;0.20;;
48363;SDS011;34170;54.364;18.582;2023-07-20T10:59:52;1.20;;;0.20;;
48363;SDS011;34170;54.364;18.582;2023-07-20T11:03:09;0.98;;;0.30;;
48363;SDS011;34170;54.364;18.582;2023-07-20T11:05:38;2.60;;;0.30;;
48363;SDS011;34170;54.364;18.582;2023-07-20T11:08:11;0.98;;;0.20;;
48363;SDS011;34170;54.364;18.582;2023-07-20T11:10:40;0.25;;;0.10;;
48363;SDS011;34170;54.364;18.582;2023-07-20T11:16:06;0.93;;;0.22;;
48363;SDS011;34170;54.364;18.582;2023-07-20T11:18:33;0.43;;;0.20;;
48363;SDS011;34170;54.364;18.582;2023-07-20T11:21:09;2.35;;;0.30;;
48363;SDS011;34170;54.364;18.582;2023-07-20T11:23:38;1.25;;;0.17;;
48363;SDS011;34170;54.364;18.582;2023-07-20T11:26:06;0.93;;;0.20;;
48363;SDS011;34170;54.364;18.582;2023-07-20T11:28:33;0.95;;;0.10;;
48363;SDS011;34170;54.364;18.582;2023-07-20T11:31:01;1.23;;;0.20;;
48363;SDS011;34170;54.364;18.582;2023-07-20T11:33:29;0.63;;;0.10;;
48363;SDS011;34170;54.364;18.582;2023-07-20T11:35:57;0.85;;;0.10;;
48363;SDS011;34170;54.364;18.582;2023-07-20T11:38:24;0.47;;;0.10;;
48363;SDS011;34170;54.364;18.582;2023-07-20T11:40:52;0.60;;;0.20;;
48363;SDS011;34170;54.364;18.582;2023-07-20T11:43:20;0.22;;;0.10;;
48363;SDS011;34170;54.364;18.582;2023-07-20T11:45:51;0.30;;;0.10;;
48363;SDS011;34170;54.364;18.582;2023-07-20T11:48:18;0.38;;;0.10;;
48363;SDS011;34170;54.364;18.582;2023-07-20T11:50:46;0.73;;;0.40;;
48363;SDS011;34170;54.364;18.582;2023-07-20T11:53:14;1.25;;;0.10;;
48363;SDS011;34170;54.364;18.582;2023-07-20T11:55:43;0.77;;;0.10;;
48363;SDS011;34170;54.364;18.582;2023-07-20T11:58:12;0.43;;;0.20;;
48363;SDS011;34170;54.364;18.582;2023-07-20T12:00:39;0.20;;;0.10;;
48363;SDS011;34170;54.364;18.582;2023-07-20T12:05:39;1.55;;;0.13;;
48363;SDS011;34170;54.364;18.582;2023-07-20T12:08:26;0.17;;;0.10;;
48363;SDS011;34170;54.364;18.582;2023-07-20T12:10:54;0.30;;;0.10;;
48363;SDS011;34170;54.364;18.582;2023-07-20T12:13:22;0.40;;;0.10;;
48363;SDS011;34170;54.364;18.582;2023-07-20T12:15:52;0.20;;;0.10;;
48363;SDS011;34170;54.364;18.582;2023-07-20T12:18:22;0.52;;;0.20;;
48363;SDS011;34170;54.364;18.582;2023-07-20T12:20:58;0.80;;;0.17;;
48363;SDS011;34170;54.364;18.582;2023-07-20T12:23:26;0.30;;;0.10;;
48363;SDS011;34170;54.364;18.582;2023-07-20T12:28:24;0.43;;;0.10;;
48363;SDS011;34170;54.364;18.582;2023-07-20T12:30:53;1.13;;;0.10;;
48363;SDS011;34170;54.364;18.582;2023-07-20T12:33:23;1.02;;;0.50;;
48363;SDS011;34170;54.364;18.582;2023-07-20T12:35:51;0.20;;;0.10;;
48363;SDS011;34170;54.364;18.582;2023-07-20T12:38:23;1.23;;;0.10;;
48363;SDS011;34170;54.364;18.582;2023-07-20T12:40:50;1.02;;;0.45;;
48363;SDS011;34170;54.364;18.582;2023-07-20T12:43:18;0.35;;;0.00;;
48363;SDS011;34170;54.364;18.582;2023-07-20T12:45:45;0.65;;;0.10;;
48363;SDS011;34170;54.364;18.582;2023-07-20T12:48:13;0.20;;;0.08;;
48363;SDS011;34170;54.364;18.582;2023-07-20T12:50:41;0.52;;;0.05;;
48363;SDS011;34170;54.364;18.582;2023-07-20T12:53:09;0.35;;;0.20;;
48363;SDS011;34170;54.364;18.582;2023-07-20T12:55:37;0.55;;;0.15;;
48363;SDS011;34170;54.364;18.582;2023-07-20T12:58:06;0.82;;;0.20;;
48363;SDS011;34170;54.364;18.582;2023-07-20T13:00:34;0.10;;;0.00;;
48363;SDS011;34170;54.364;18.582;2023-07-20T13:03:02;0.57;;;0.10;;
48363;SDS011;34170;54.364;18.582;2023-07-20T13:05:36;1.77;;;0.20;;
48363;SDS011;34170;54.364;18.582;2023-07-20T13:08:07;0.20;;;0.10;;
48363;SDS011;34170;54.364;18.582;2023-07-20T13:10:37;0.47;;;0.20;;
48363;SDS011;34170;54.364;18.582;2023-07-20T13:13:08;1.33;;;0.15;;
48363;SDS011;34170;54.364;18.582;2023-07-20T13:15:43;1.17;;;0.10;;
48363;SDS011;34170;54.364;18.582;2023-07-20T13:18:12;0.50;;;0.10;;
48363;SDS011;34170;54.364;18.582;2023-07-20T13:20:39;2.95;;;0.22;;
48363;SDS011;34170;54.364;18.582;2023-07-20T13:23:07;0.40;;;0.22;;
48363;SDS011;34170;54.364;18.582;2023-07-20T13:25:35;0.28;;;0.10;;
48363;SDS011;34170;54.364;18.582;2023-07-20T13:28:02;1.98;;;0.30;;
48363;SDS011;34170;54.364;18.582;2023-07-20T13:30:30;0.57;;;0.20;;
48363;SDS011;34170;54.364;18.582;2023-07-20T13:32:58;0.40;;;0.10;;
48363;SDS011;34170;54.364;18.582;2023-07-20T13:35:28;0.20;;;0.08;;
48363;SDS011;34170;54.364;18.582;2023-07-20T13:38:15;0.93;;;0.10;;
48363;SDS011;34170;54.364;18.582;2023-07-20T13:40:43;3.13;;;0.10;;
48363;SDS011;34170;54.364;18.582;2023-07-20T13:43:11;1.67;;;0.20;;
48363;SDS011;34170;54.364;18.582;2023-07-20T13:45:39;0.30;;;0.30;;
48363;SDS011;34170;54.364;18.582;2023-07-20T13:48:06;0.75;;;0.00;;
48363;SDS011;34170;54.364;18.582;2023-07-20T13:50:34;0.63;;;0.10;;
48363;SDS011;34170;54.364;18.582;2023-07-20T13:53:05;0.35;;;0.10;;
48363;SDS011;34170;54.364;18.582;2023-07-20T13:55:35;1.08;;;0.20;;
48363;SDS011;34170;54.364;18.582;2023-07-20T13:58:07;0.75;;;0.20;;
48363;SDS011;34170;54.364;18.582;2023-07-20T14:00:39;0.20;;;0.00;;
48363;SDS011;34170;54.364;18.582;2023-07-20T14:03:07;0.10;;;0.00;;
48363;SDS011;34170;54.364;18.582;2023-07-20T14:05:39;0.38;;;0.13;;
48363;SDS011;34170;54.364;18.582;2023-07-20T14:08:10;1.40;;;0.20;;
48363;SDS011;34170;54.364;18.582;2023-07-20T14:10:37;1.48;;;0.10;;
48363;SDS011;34170;54.364;18.582;2023-07-20T14:13:08;1.17;;;0.40;;
48363;SDS011;34170;54.364;18.582;2023-07-20T14:15:35;0.75;;;0.32;;
48363;SDS011;34170;54.364;18.582;2023-07-20T14:18:03;1.70;;;1.23;;
48363;SDS011;34170;54.364;18.582;2023-07-20T14:20:30;0.98;;;0.40;;
48363;SDS011;34170;54.364;18.582;2023-07-20T14:22:58;0.73;;;0.20;;
48363;SDS011;34170;54.364;18.582;2023-07-20T14:25:25;1.75;;;0.30;;
48363;SDS011;34170;54.364;18.582;2023-07-20T14:27:56;0.65;;;0.20;;
48363;SDS011;34170;54.364;18.582;2023-07-20T14:30:23;1.25;;;0.38;;
48363;SDS011;34170;54.364;18.582;2023-07-20T14:32:51;2.80;;;0.95;;
48363;SDS011;34170;54.364;18.582;2023-07-20T14:35:18;2.05;;;0.50;;
48363;SDS011;34170;54.364;18.582;2023-07-20T14:37:47;1.25;;;0.32;;
48363;SDS011;34170;54.364;18.582;2023-07-20T14:40:14;0.73;;;0.40;;
48363;SDS011;34170;54.364;18.582;2023-07-20T14:42:42;5.43;;;0.65;;
48363;SDS011;34170;54.364;18.582;2023-07-20T14:45:09;1.27;;;0.20;;
48363;SDS011;34170;54.364;18.582;2023-07-20T14:47:37;2.45;;;0.10;;
48363;SDS011;34170;54.364;18.582;2023-07-20T14:50:05;2.42;;;0.50;;
48363;SDS011;34170;54.364;18.582;2023-07-20T14:52:33;0.90;;;0.20;;
48363;SDS011;34170;54.364;18.582;2023-07-20T14:55:01;2.45;;;0.20;;
48363;SDS011;34170;54.364;18.582;2023-07-20T14:57:28;0.75;;;0.20;;
48363;SDS011;34170;54.364;18.582;2023-07-20T14:59:56;0.80;;;0.10;;
48363;SDS011;34170;54.364;18.582;2023-07-20T15:02:23;4.63;;;1.80;;
48363;SDS011;34170;54.364;18.582;2023-07-20T15:04:52;2.67;;;0.20;;
48363;SDS011;34170;54.364;18.582;2023-07-20T15:07:20;1.63;;;0.22;;
48363;SDS011;34170;54.364;18.582;2023-07-20T15:09:51;2.47;;;0.52;;
48363;SDS011;34170;54.364;18.582;2023-07-20T15:12:19;1.45;;;0.15;;
48363;SDS011;34170;54.364;18.582;2023-07-20T15:14:51;1.05;;;0.20;;